Terminal Aerodrome Forecast
Issued by NWS

Home | Current Version | Previous Version | Text Only | Print | Product List | Glossary Off
Versions: 1 2 3 4 5 6 7 8 9 10 11

000
FTUS43 KTOP 262300
TAFFOE
TAF
KFOE 262320Z 2700/2724 01006KT P6SM SCT011 OVC035
      TEMPO 2700/2702 BKN013
     FM270200 34006KT 6SM -RASN BR OVC011
     FM270900 32007KT 6SM BR OVC015
     FM271200 31010KT P6SM OVC040=

USA.gov is the U.S. government's official web portal to all federal, state and local government web resources and services.